createdAt,value
2022-10-19T00:01:16.792Z,97270.88
2022-10-19T00:03:44.946Z,97273.47
2022-10-19T00:06:28.132Z,97274.81
2022-10-19T00:08:57.191Z,97274.03
2022-10-19T00:11:24.430Z,97285.78
2022-10-19T00:13:52.283Z,97278.31
2022-10-19T00:16:19.458Z,97274.31
2022-10-19T00:18:46.184Z,97278.31
2022-10-19T00:21:15.649Z,97285.47
2022-10-19T00:23:42.927Z,97273.03
2022-10-19T00:26:09.514Z,97268.75
2022-10-19T00:28:36.421Z,97264.72
2022-10-19T00:31:09.564Z,97269.84
2022-10-19T00:33:36.204Z,97265.06
2022-10-19T00:36:03.749Z,97266.09
2022-10-19T00:38:30.630Z,97258.16
2022-10-19T00:40:57.109Z,97260.56
2022-10-19T00:43:30.269Z,97258.16
2022-10-19T00:45:56.569Z,97250.19
2022-10-19T00:48:28.344Z,97254.47
2022-10-19T00:50:58.366Z,97258.13
2022-10-19T00:53:28.716Z,97251.28
2022-10-19T00:55:57.208Z,97253.34
2022-10-19T00:58:24.137Z,97242.72
2022-10-19T01:00:50.721Z,97248.31
2022-10-19T01:03:17.134Z,97251.75
2022-10-19T01:05:43.597Z,97243.25
2022-10-19T01:08:11.528Z,97241.16
2022-10-19T01:10:51.250Z,97235.84
2022-10-19T01:13:58.907Z,97238.47
2022-10-19T01:16:47.900Z,97227.34
2022-10-19T01:19:44.740Z,97234.22
2022-10-19T01:22:40.150Z,97228.44
2022-10-19T01:25:47.087Z,97227.94
2022-10-19T01:28:22.588Z,97223.66
2022-10-19T01:30:51.585Z,97218.38
2022-10-19T01:33:43.480Z,97225.00
2022-10-19T01:36:40.045Z,97220.50
2022-10-19T01:39:17.517Z,97220.00
2022-10-19T01:42:03.363Z,97214.97
2022-10-19T01:44:45.599Z,97217.31
2022-10-19T01:47:20.425Z,97210.72
2022-10-19T01:49:53.143Z,97210.16
2022-10-19T01:52:22.898Z,97215.25
2022-10-19T01:54:53.031Z,97200.31
2022-10-19T01:57:30.386Z,97196.91
2022-10-19T01:59:58.047Z,97197.13
2022-10-19T02:02:27.855Z,97195.03
2022-10-19T02:04:57.213Z,97197.44
2022-10-19T02:07:25.089Z,97192.38
2022-10-19T02:09:51.468Z,97190.00
2022-10-19T02:12:20.427Z,97196.63
2022-10-19T02:14:53.234Z,97192.38
2022-10-19T02:17:25.291Z,97188.66
2022-10-19T02:19:53.714Z,97193.47
2022-10-19T02:22:21.220Z,97189.22
2022-10-19T02:24:47.598Z,97191.38
2022-10-19T02:27:14.304Z,97189.75
2022-10-19T02:29:41.109Z,97191.59
2022-10-19T02:32:07.928Z,97190.81
2022-10-19T02:34:36.070Z,97195.03
2022-10-19T02:37:02.597Z,97190.84
2022-10-19T02:39:29.397Z,97196.13
2022-10-19T02:42:05.602Z,97190.31
2022-10-19T02:44:42.482Z,97183.13
2022-10-19T02:47:19.239Z,97174.66
2022-10-19T02:49:47.690Z,97183.66
2022-10-19T02:52:14.563Z,97186.09
2022-10-19T02:54:43.259Z,97173.34
2022-10-19T02:57:21.814Z,97176.78
2022-10-19T02:59:48.803Z,97168.53
2022-10-19T03:02:16.808Z,97167.50
2022-10-19T03:04:44.751Z,97159.00
2022-10-19T03:07:16.472Z,97164.06
2022-10-19T03:09:43.478Z,97163.25
2022-10-19T03:12:10.927Z,97171.69
2022-10-19T03:14:37.277Z,97167.72
2022-10-19T03:17:04.270Z,97158.44
2022-10-19T03:19:31.353Z,97160.53
2022-10-19T03:21:58.155Z,97169.34
2022-10-19T03:24:25.152Z,97170.97
2022-10-19T03:26:51.652Z,97170.16
2022-10-19T03:29:18.022Z,97169.06
2022-10-19T03:31:44.626Z,97168.53
2022-10-19T03:34:11.038Z,97165.38
2022-10-19T03:36:40.333Z,97186.13
2022-10-19T03:39:14.729Z,97173.34
2022-10-19T03:41:41.803Z,97167.50
2022-10-19T03:44:09.751Z,97162.22
2022-10-19T03:46:36.759Z,97164.88
2022-10-19T03:49:03.569Z,97164.31
2022-10-19T03:51:31.853Z,97171.75
2022-10-19T03:54:02.313Z,97161.16
2022-10-19T03:56:30.725Z,97160.59
2022-10-19T03:58:59.218Z,97161.69
2022-10-19T04:01:32.089Z,97161.44
2022-10-19T04:04:03.735Z,97163.81
2022-10-19T04:06:32.653Z,97167.78
2022-10-19T04:08:59.418Z,97162.50
2022-10-19T04:11:28.654Z,97159.03
2022-10-19T04:13:56.513Z,97162.50
2022-10-19T04:16:24.214Z,97154.25
2022-10-19T04:18:51.723Z,97159.03
2022-10-19T04:21:32.334Z,97159.06
2022-10-19T04:24:03.230Z,97160.38
2022-10-19T04:26:30.066Z,97155.84
2022-10-19T04:29:01.289Z,97145.50
2022-10-19T04:31:28.789Z,97143.63
2022-10-19T04:33:56.101Z,97145.25
2022-10-19T04:36:23.299Z,97141.03
2022-10-19T04:38:49.755Z,97138.34
2022-10-19T04:41:19.121Z,97128.81
2022-10-19T04:43:46.001Z,97134.63
2022-10-19T04:46:15.210Z,97130.88
2022-10-19T04:48:42.109Z,97135.16
2022-10-19T04:51:09.586Z,97133.28
2022-10-19T04:53:37.739Z,97140.47
2022-10-19T04:56:06.529Z,97138.91
2022-10-19T04:58:33.443Z,97133.06
2022-10-19T05:01:00.216Z,97138.34
2022-10-19T05:03:26.614Z,97141.81
2022-10-19T05:05:53.065Z,97136.78
2022-10-19T05:08:19.779Z,97132.81
2022-10-19T05:10:47.742Z,97140.47
2022-10-19T05:13:14.533Z,97147.66
2022-10-19T05:15:41.084Z,97146.34
2022-10-19T05:18:07.556Z,97145.56
2022-10-19T05:20:34.053Z,97156.16
2022-10-19T05:23:04.692Z,97151.41
2022-10-19T05:25:33.654Z,97152.97
2022-10-19T05:28:00.018Z,97148.44
2022-10-19T05:30:26.447Z,97148.75
2022-10-19T05:32:52.849Z,97155.63
2022-10-19T05:35:22.344Z,97154.84
2022-10-19T05:37:49.133Z,97153.78
2022-10-19T05:40:15.565Z,97155.91
2022-10-19T05:42:41.976Z,97154.31
2022-10-19T05:45:08.742Z,97150.34
2022-10-19T05:47:35.694Z,97154.31
2022-10-19T05:50:02.217Z,97141.06
2022-10-19T05:52:29.129Z,97138.38
2022-10-19T05:54:56.271Z,97135.47
2022-10-19T05:57:22.632Z,97142.63
2022-10-19T05:59:49.083Z,97139.47
2022-10-19T06:02:15.477Z,97133.88
2022-10-19T06:04:41.844Z,97141.28
2022-10-19T06:07:08.197Z,97138.66
2022-10-19T06:09:36.419Z,97133.84
2022-10-19T06:12:03.860Z,97134.41
2022-10-19T06:14:30.377Z,97137.28
2022-10-19T06:16:57.088Z,97142.91
2022-10-19T06:19:23.493Z,97145.28
2022-10-19T06:21:49.852Z,97150.06
2022-10-19T06:24:16.351Z,97145.81
2022-10-19T06:26:42.888Z,97154.03
2022-10-19T06:29:09.911Z,97152.72
2022-10-19T06:31:36.694Z,97153.50
2022-10-19T06:34:03.962Z,97159.06
2022-10-19T06:36:31.525Z,97170.75
2022-10-19T06:38:59.761Z,97166.50
2022-10-19T06:41:26.601Z,97169.16
2022-10-19T06:43:54.759Z,97164.91
2022-10-19T06:46:23.382Z,97170.22
2022-10-19T06:48:55.091Z,97167.31
2022-10-19T06:51:21.903Z,97168.38
2022-10-19T06:53:49.002Z,97174.97
2022-10-19T06:56:18.376Z,97173.41
2022-10-19T06:58:45.064Z,97170.75
2022-10-19T07:01:13.851Z,97175.53
2022-10-19T07:03:40.862Z,97177.63
2022-10-19T07:06:09.119Z,97180.81
2022-10-19T07:08:38.254Z,97171.81
2022-10-19T07:11:07.890Z,97182.38
2022-10-19T07:13:34.910Z,97174.44
2022-10-19T07:16:16.152Z,97170.44
2022-10-19T07:18:46.921Z,97172.81
2022-10-19T07:21:15.845Z,97183.97
2022-10-19T07:23:45.046Z,97176.53
2022-10-19T07:26:21.484Z,97181.31
2022-10-19T07:28:48.992Z,97182.88
2022-10-19T07:31:19.064Z,97186.56
2022-10-19T07:33:45.506Z,97189.72
2022-10-19T07:36:13.688Z,97184.91
2022-10-19T07:38:40.531Z,97190.75
2022-10-19T07:41:13.043Z,97192.88
2022-10-19T07:43:40.690Z,97191.53
2022-10-19T07:46:10.598Z,97196.06
2022-10-19T07:48:37.068Z,97191.25
2022-10-19T07:51:05.809Z,97189.06
2022-10-19T07:53:32.727Z,97180.84
2022-10-19T07:56:14.287Z,97183.44
2022-10-19T07:58:41.588Z,97190.84
2022-10-19T08:01:13.763Z,97186.84
2022-10-19T08:04:31.648Z,97184.44
2022-10-19T08:06:27.616Z,97180.44
2022-10-19T08:08:54.693Z,97179.34
2022-10-19T08:11:26.888Z,97172.91
2022-10-19T08:13:54.271Z,97176.06
2022-10-19T08:16:27.743Z,97171.50
2022-10-19T08:18:58.444Z,97173.03
2022-10-19T08:21:25.971Z,97175.97
2022-10-19T08:23:52.409Z,97180.94
2022-10-19T08:26:18.878Z,97174.06
2022-10-19T08:28:45.390Z,97172.19
2022-10-19T08:31:18.096Z,97175.28
2022-10-19T08:33:45.179Z,97172.00
2022-10-19T08:36:13.273Z,97169.81
2022-10-19T08:38:40.442Z,97167.91
2022-10-19T08:41:25.936Z,97164.13
2022-10-19T08:44:29.820Z,97164.91
2022-10-19T08:47:01.408Z,97172.09
2022-10-19T08:49:30.930Z,97169.06
2022-10-19T08:52:20.340Z,97161.28
2022-10-19T08:55:18.102Z,97153.53
2022-10-19T08:58:01.662Z,97160.97
2022-10-19T09:00:52.938Z,97161.69
2022-10-19T09:03:31.867Z,97147.69
2022-10-19T09:06:22.448Z,97148.94
2022-10-19T09:08:53.006Z,97150.97
2022-10-19T09:11:27.441Z,97149.59
2022-10-19T09:14:13.028Z,97154.03
2022-10-19T09:16:39.516Z,97152.22
2022-10-19T09:19:16.580Z,97151.50
2022-10-19T09:21:51.575Z,97150.13
2022-10-19T09:24:29.227Z,97152.72
2022-10-19T09:26:58.750Z,97150.44
2022-10-19T09:29:34.231Z,97151.47
2022-10-19T09:32:03.510Z,97148.72
2022-10-19T09:34:42.690Z,97150.78
2022-10-19T09:37:18.838Z,97151.75
2022-10-19T09:39:54.023Z,97149.03
2022-10-19T09:42:36.751Z,97150.63
2022-10-19T09:45:17.573Z,97144.16
2022-10-19T09:47:47.763Z,97148.63
2022-10-19T09:50:22.988Z,97156.47
2022-10-19T09:52:52.374Z,97154.09
2022-10-19T09:55:57.990Z,97154.09
2022-10-19T09:58:32.877Z,97154.31
2022-10-19T10:01:01.032Z,97144.16
2022-10-19T10:03:32.158Z,97138.84
2022-10-19T10:06:14.867Z,97148.22
2022-10-19T10:08:57.971Z,97148.22
2022-10-19T10:11:34.142Z,97139.63
2022-10-19T10:14:15.424Z,97137.16
2022-10-19T10:16:41.866Z,97150.72
2022-10-19T10:19:13.072Z,97150.63
2022-10-19T10:21:48.216Z,97150.63
2022-10-19T10:24:16.423Z,97148.94
2022-10-19T10:26:46.357Z,97148.28
2022-10-19T10:29:36.509Z,97151.09
2022-10-19T10:32:16.125Z,97145.16
2022-10-19T10:34:57.297Z,97148.13
2022-10-19T10:37:45.042Z,97145.25
2022-10-19T10:40:25.097Z,97143.56
2022-10-19T10:42:53.808Z,97140.13
2022-10-19T10:45:42.667Z,97128.34
2022-10-19T10:48:30.743Z,97129.72
2022-10-19T10:50:59.636Z,97126.63
2022-10-19T10:53:32.078Z,97124.75
2022-10-19T10:55:58.508Z,97117.25
2022-10-19T10:58:37.136Z,97110.28
2022-10-19T11:01:18.038Z,97105.16
2022-10-19T11:03:51.177Z,97112.25
2022-10-19T11:06:20.964Z,97100.47
2022-10-19T11:08:56.802Z,97099.38
2022-10-19T11:11:36.034Z,97100.47
2022-10-19T11:14:39.064Z,97095.50
2022-10-19T11:17:13.809Z,97093.69
2022-10-19T11:19:44.320Z,97090.53
2022-10-19T11:22:28.306Z,97084.47
2022-10-19T11:25:03.754Z,97082.78
2022-10-19T11:27:45.871Z,97079.13
2022-10-19T11:30:16.880Z,97073.91
2022-10-19T11:33:18.243Z,97079.13
2022-10-19T11:35:53.084Z,97068.72
2022-10-19T11:38:29.855Z,97073.16
2022-10-19T11:41:30.050Z,97072.47
2022-10-19T11:44:22.426Z,97063.53
2022-10-19T11:47:06.947Z,97057.38
2022-10-19T11:49:54.798Z,97053.72
2022-10-19T11:52:49.495Z,97054.63
2022-10-19T11:55:24.188Z,97050.47
2022-10-19T11:58:05.186Z,97044.06
2022-10-19T12:00:41.537Z,97043.78
2022-10-19T12:03:21.136Z,97035.47
2022-10-19T12:05:56.785Z,97026.03
2022-10-19T12:08:29.205Z,97028.22
2022-10-19T12:11:27.974Z,97026.66
2022-10-19T12:14:03.603Z,97025.13
2022-10-19T12:16:40.063Z,97020.34
2022-10-19T12:19:16.303Z,97019.75
2022-10-19T12:21:44.490Z,97021.81
2022-10-19T12:24:16.420Z,97017.41
2022-10-19T12:26:45.449Z,97019.78
2022-10-19T12:29:34.888Z,97014.94
2022-10-19T12:32:03.239Z,97013.19
2022-10-19T12:34:45.083Z,97004.09
2022-10-19T12:37:20.321Z,97008.81
2022-10-19T12:40:31.067Z,96996.69
2022-10-19T12:43:14.856Z,96999.09
2022-10-19T12:45:51.479Z,96996.25
2022-10-19T12:48:20.418Z,96991.06
2022-10-19T12:50:49.618Z,96997.81
2022-10-19T12:53:31.135Z,96990.06
2022-10-19T12:56:09.895Z,96989.44
2022-10-19T12:58:46.682Z,96994.06
2022-10-19T13:01:43.900Z,96986.78
2022-10-19T13:04:21.205Z,96984.28
2022-10-19T13:06:50.915Z,96990.50
2022-10-19T13:09:34.195Z,96987.53
2022-10-19T13:12:22.425Z,96977.75
2022-10-19T13:14:59.008Z,96981.53
2022-10-19T13:17:34.971Z,96971.56
2022-10-19T13:20:14.035Z,96966.66
2022-10-19T13:22:44.855Z,96968.69
2022-10-19T13:25:17.126Z,96974.84
2022-10-19T13:27:44.449Z,96967.59
2022-10-19T13:30:35.927Z,96965.38
2022-10-19T13:33:28.503Z,96954.19
2022-10-19T13:36:02.286Z,96956.22
2022-10-19T13:38:33.384Z,96959.41
2022-10-19T13:41:03.052Z,96948.72
2022-10-19T13:43:51.647Z,96952.31
2022-10-19T13:46:25.549Z,96946.47
2022-10-19T13:49:01.288Z,96945.84
2022-10-19T13:51:52.108Z,96946.16
2022-10-19T13:54:27.519Z,96946.34
2022-10-19T13:57:09.090Z,96943.47
2022-10-19T13:59:56.751Z,96944.88
2022-10-19T14:02:45.866Z,96937.97
2022-10-19T14:08:19.961Z,96934.06
2022-10-19T14:11:00.679Z,96935.34
2022-10-19T14:13:28.271Z,96940.53
2022-10-19T14:15:58.243Z,96937.38
2022-10-19T14:18:29.574Z,96936.44
2022-10-19T14:21:00.804Z,96928.88
2022-10-19T14:23:30.291Z,96935.19
2022-10-19T14:26:01.279Z,96934.50
2022-10-19T14:28:28.732Z,96938.63
2022-10-19T14:31:01.017Z,96938.28
2022-10-19T14:33:32.182Z,96930.59
2022-10-19T14:35:58.709Z,96929.94
2022-10-19T14:38:37.097Z,96926.94
2022-10-19T14:41:05.739Z,96934.50
2022-10-19T14:43:34.670Z,96926.28
2022-10-19T14:46:07.117Z,96922.97
2022-10-19T14:48:51.727Z,96917.94
2022-10-19T14:51:28.246Z,96924.09
2022-10-19T14:54:00.513Z,96926.13
2022-10-19T14:56:32.695Z,96929.09
2022-10-19T14:59:12.242Z,96928.63
2022-10-19T15:01:38.769Z,96932.56
2022-10-19T15:04:05.282Z,96931.78
2022-10-19T15:06:35.944Z,96922.63
2022-10-19T15:09:05.254Z,96927.00
2022-10-19T15:11:40.500Z,96925.09
2022-10-19T15:14:16.395Z,96924.47
2022-10-19T15:16:50.723Z,96923.97
2022-10-19T15:19:29.020Z,96923.81
2022-10-19T15:22:14.214Z,96915.94
2022-10-19T15:24:55.675Z,96924.88
2022-10-19T15:27:28.773Z,96933.03
2022-10-19T15:29:59.807Z,96930.38
2022-10-19T15:32:32.003Z,96926.13
2022-10-19T15:34:59.192Z,96923.59
2022-10-19T15:39:53.283Z,96922.31
2022-10-19T15:42:35.282Z,96928.78
2022-10-19T15:45:03.619Z,96929.66
2022-10-19T15:47:30.330Z,96929.19
2022-10-19T15:50:02.080Z,96923.47
2022-10-19T15:52:32.518Z,96922.19
2022-10-19T15:55:00.518Z,96921.53
2022-10-19T15:57:38.393Z,96920.59
2022-10-19T16:00:16.998Z,96930.31
2022-10-19T16:02:43.862Z,96932.47
2022-10-19T16:05:10.875Z,96933.38
2022-10-19T16:07:40.246Z,96932.38
2022-10-19T16:10:07.835Z,96937.97
2022-10-19T16:12:34.218Z,96939.41
2022-10-19T16:15:00.609Z,96937.63
2022-10-19T16:17:27.076Z,96939.81
2022-10-19T16:19:53.437Z,96936.16
2022-10-19T16:22:19.851Z,96933.94
2022-10-19T16:24:46.206Z,96936.03
2022-10-19T16:27:16.259Z,96934.78
2022-10-19T16:29:44.150Z,96930.00
2022-10-19T16:32:10.559Z,96928.75
2022-10-19T16:34:37.059Z,96927.28
2022-10-19T16:37:05.947Z,96932.63
2022-10-19T16:39:33.606Z,96930.03
2022-10-19T16:42:00.230Z,96933.91
2022-10-19T16:44:26.650Z,96929.47
2022-10-19T16:46:53.037Z,96938.06
2022-10-19T16:49:19.406Z,96934.41
2022-10-19T16:51:45.852Z,96936.59
2022-10-19T16:54:12.447Z,96947.75
2022-10-19T16:56:44.658Z,96940.66
2022-10-19T16:59:13.675Z,96935.63
2022-10-19T17:01:40.806Z,96939.06
2022-10-19T17:04:07.498Z,96946.91
2022-10-19T17:06:34.228Z,96945.13
2022-10-19T17:11:47.233Z,96951.97
2022-10-19T17:14:13.698Z,96956.28
2022-10-19T17:16:40.748Z,96958.19
2022-10-19T17:19:08.495Z,96959.56
2022-10-19T17:21:41.902Z,96970.06
2022-10-19T17:24:16.926Z,96968.78
2022-10-19T17:26:46.690Z,96970.16
2022-10-19T17:29:13.631Z,96978.16
2022-10-19T17:31:41.015Z,96976.09
2022-10-19T17:34:08.411Z,96978.75
2022-10-19T17:36:38.363Z,96984.19
2022-10-19T17:39:08.100Z,96998.91
2022-10-19T17:41:35.142Z,96999.28
2022-10-19T17:44:04.094Z,96999.88
2022-10-19T17:46:34.275Z,96997.81
2022-10-19T17:49:01.466Z,97009.38
2022-10-19T17:51:30.248Z,97012.53
2022-10-19T17:53:59.550Z,97008.91
2022-10-19T17:56:26.746Z,97008.16
2022-10-19T17:58:53.610Z,97015.88
2022-10-19T18:01:21.421Z,97013.50
2022-10-19T18:03:48.901Z,97019.03
2022-10-19T18:06:27.477Z,97011.91
2022-10-19T18:08:56.393Z,97018.03
2022-10-19T18:11:25.705Z,97020.97
2022-10-19T18:13:54.257Z,97016.66
2022-10-19T18:16:26.430Z,97014.50
2022-10-19T18:18:56.077Z,97007.56
2022-10-19T18:21:33.611Z,97000.66
2022-10-19T18:24:02.319Z,97006.88
2022-10-19T18:26:31.206Z,97010.41
2022-10-19T18:28:58.556Z,97016.25
2022-10-19T18:31:29.572Z,97012.47
2022-10-19T18:34:01.600Z,97012.00
2022-10-19T18:36:28.788Z,97011.34
2022-10-19T18:38:57.218Z,97008.88
2022-10-19T18:41:24.262Z,97009.47
2022-10-19T18:43:52.514Z,97012.09
2022-10-19T18:46:20.569Z,97003.00
2022-10-19T18:48:48.047Z,97004.88
2022-10-19T18:51:15.551Z,97015.31
2022-10-19T18:53:43.175Z,97018.84
2022-10-19T18:56:12.182Z,97013.78
2022-10-19T18:58:39.414Z,97018.53
2022-10-19T19:01:16.455Z,97005.50
2022-10-19T19:03:45.417Z,97004.22
2022-10-19T19:06:15.003Z,97019.22
2022-10-19T19:08:41.688Z,97011.22
2022-10-19T19:11:18.725Z,97019.38
2022-10-19T19:13:50.416Z,97019.38
2022-10-19T19:16:16.830Z,97016.69
2022-10-19T19:18:43.314Z,97014.13
2022-10-19T19:21:15.795Z,97012.03
2022-10-19T19:23:42.471Z,97011.44
2022-10-19T19:26:10.259Z,97010.16
2022-10-19T19:28:39.265Z,97017.44
2022-10-19T19:31:09.616Z,97016.53
2022-10-19T19:33:36.338Z,97019.69
2022-10-19T19:36:07.435Z,97023.56
2022-10-19T19:38:35.065Z,97030.34
2022-10-19T19:41:06.888Z,97023.94
2022-10-19T19:43:34.644Z,97042.09
2022-10-19T19:46:06.352Z,97037.34
2022-10-19T19:48:36.390Z,97050.16
2022-10-19T19:51:02.942Z,97047.56
2022-10-19T19:53:29.474Z,97044.91
2022-10-19T19:55:55.990Z,97039.56
2022-10-19T19:58:22.365Z,97043.81
2022-10-19T20:00:48.889Z,97047.34
2022-10-19T20:03:15.788Z,97049.84
2022-10-19T20:05:42.520Z,97050.16
2022-10-19T20:08:09.326Z,97045.75
2022-10-19T20:10:40.234Z,97040.72
2022-10-19T20:13:06.666Z,97032.72
2022-10-19T20:15:33.212Z,97031.63
2022-10-19T20:17:59.795Z,97040.66
2022-10-19T20:20:26.165Z,97039.13
2022-10-19T20:22:52.629Z,97030.84
2022-10-19T20:25:19.012Z,97027.69
2022-10-19T20:27:45.421Z,97039.13
2022-10-19T20:30:11.985Z,97034.09
2022-10-19T20:32:38.615Z,97034.09
2022-10-19T20:35:06.054Z,97029.31
2022-10-19T20:37:32.431Z,97034.94
2022-10-19T20:39:58.973Z,97029.91
2022-10-19T20:42:25.429Z,97027.75
2022-10-19T20:44:54.812Z,97031.50
2022-10-19T20:47:21.243Z,97043.53
2022-10-19T20:49:48.033Z,97046.69
2022-10-19T20:52:14.484Z,97048.34
2022-10-19T20:54:40.845Z,97048.84
2022-10-19T20:57:07.209Z,97049.56
2022-10-19T20:59:33.782Z,97053.16
2022-10-19T21:02:00.209Z,97057.13
2022-10-19T21:04:26.865Z,97064.31
2022-10-19T21:06:53.318Z,97060.22
2022-10-19T21:09:22.548Z,97060.44
2022-10-19T21:11:50.797Z,97064.97
2022-10-19T21:14:26.949Z,97069.50
2022-10-19T21:16:56.762Z,97063.88
2022-10-19T21:19:25.400Z,97071.41
2022-10-19T21:21:56.907Z,97067.44
2022-10-19T21:24:29.433Z,97065.53
2022-10-19T21:26:55.934Z,97069.56
2022-10-19T21:29:22.407Z,97065.75
2022-10-19T21:31:51.980Z,97074.03
2022-10-19T21:34:21.970Z,97063.94
2022-10-19T21:36:49.146Z,97070.41
2022-10-19T21:39:16.178Z,97070.41
2022-10-19T21:41:42.813Z,97064.56
2022-10-19T21:44:09.473Z,97070.03
2022-10-19T21:46:35.828Z,97064.44
2022-10-19T21:49:02.321Z,97057.75
2022-10-19T21:51:34.887Z,97057.38
2022-10-19T21:54:02.391Z,97065.66
2022-10-19T21:56:29.224Z,97067.88
2022-10-19T21:58:56.191Z,97061.47
2022-10-19T22:01:25.825Z,97070.75
2022-10-19T22:04:03.827Z,97071.31
2022-10-19T22:06:34.462Z,97069.88
2022-10-19T22:09:01.836Z,97066.75
2022-10-19T22:11:28.377Z,97074.88
2022-10-19T22:13:56.162Z,97074.03
2022-10-19T22:16:24.109Z,97080.72
2022-10-19T22:18:50.942Z,97078.91
2022-10-19T22:21:23.161Z,97084.81
2022-10-19T22:24:15.257Z,97077.88
2022-10-19T22:26:44.693Z,97074.91
2022-10-19T22:29:11.468Z,97072.03
2022-10-19T22:31:38.511Z,97068.59
2022-10-19T22:34:07.597Z,97067.91
2022-10-19T22:36:34.381Z,97065.19
2022-10-19T22:39:00.781Z,97066.75
2022-10-19T22:41:27.223Z,97070.31
2022-10-19T22:44:50.059Z,97083.16
2022-10-19T22:48:12.764Z,97078.78
2022-10-19T22:51:35.479Z,97076.09
2022-10-19T22:54:01.861Z,97077.72
2022-10-19T22:56:28.295Z,97080.06
2022-10-19T22:58:58.818Z,97078.50
2022-10-19T23:01:25.300Z,97084.38
2022-10-19T23:03:51.707Z,97093.16
2022-10-19T23:06:18.451Z,97086.25
2022-10-19T23:08:45.159Z,97089.19
2022-10-19T23:11:12.249Z,97086.91
2022-10-19T23:13:38.981Z,97090.34
2022-10-19T23:16:05.677Z,97076.31
2022-10-19T23:18:36.295Z,97072.50
2022-10-19T23:21:05.406Z,97060.25
2022-10-19T23:23:33.555Z,97063.47
2022-10-19T23:26:14.650Z,97061.59
2022-10-19T23:28:42.903Z,97063.00
2022-10-19T23:31:15.160Z,97065.81
2022-10-19T23:33:42.921Z,97068.94
2022-10-19T23:36:14.172Z,97062.84
2022-10-19T23:38:44.801Z,97067.19
2022-10-19T23:41:12.470Z,97071.72
2022-10-19T23:43:39.191Z,97070.66
2022-10-19T23:46:05.950Z,97067.19
2022-10-19T23:48:32.887Z,97069.94
2022-10-19T23:51:09.723Z,97076.03
2022-10-19T23:53:40.986Z,97076.34
2022-10-19T23:56:14.605Z,97076.66
2022-10-19T23:58:41.054Z,97076.03
